• Join FlightAware (Why Join?)
  • Login
  • US Flag 
12:43AM EST


 

Airport Tracker/Info


-or-


 

Live Flight TrackerFlight Track Log ✈ DAL6152 ✈ 08-Jun-2014 ✈ KLEX - KDTW

Flight Track Log - Related Links

Times and Time Zones

All times are in EDT time to prevent confusion due to time zone crossing. See the DAL6152 flight status page for this flight to view local times or setup timezone preferences in your user account.

Time Position Orientation Groundspeed Altitude Reporting Facility
EDT Latitude Longitude Course Direction KTS MPH feet Rate Location/Type
08:13AM 38.0200 -84.6308 352° North 146 168 24,000  Level Indianapolis Center
08:14AM 38.0522 -84.6628 322° Northwest 201 231 4,200 -8,880 Descending Indianapolis Center
08:15AM 38.1169 -84.6631 360° North 217 250 5,800 1,380 Climbing Indianapolis Center
08:16AM 38.4488 -84.5664 349° North  Level FlightAware Approximate
08:16AM 38.1922 -84.6678 357° North 244 281 7,100  Level Indianapolis Center
08:17AM 38.5504 -84.5945 350° North  Level FlightAware Approximate
08:17AM 38.2761 -84.6706 359° North 282 325 10,100  Level Indianapolis Center
08:18AM 38.6528 -84.6172 352° North  Level FlightAware Approximate
08:18AM 38.3561 -84.6744 358° North 285 328 11,300  Level Indianapolis Center
08:19AM 38.4503 -84.6783 358° North 323 372 11,800 480 Climbing Indianapolis Center
08:20AM 38.5522 -84.6842 357° North 351 404 12,300 540 Climbing Indianapolis Center
08:21AM 38.6619 -84.6914 357° North 368 423 13,000 720 Climbing Indianapolis Center
08:22AM 38.7706 -84.6950 359° North 382 440 13,800 780 Climbing Indianapolis Center
08:23AM 38.8797 -84.6989 358° North 386 444 14,700 900 Climbing Indianapolis Center
08:24AM 38.9983 -84.7014 359° North 398 458 15,700 960 Climbing Indianapolis Center
08:25AM 39.1067 -84.6767 10° North 401 461 16,700 960 Climbing Indianapolis Center
08:26AM 39.2142 -84.6428 14° North 400 460 17,700 1,800 Climbing Indianapolis Center
08:27AM 39.3183 -84.6125 13° North 392 451 20,400 1,860 Climbing Indianapolis Center
08:28AM 39.4167 -84.5817 14° North 370 426 21,500 1,080 Climbing Indianapolis Center
08:29AM 39.5200 -84.5506 13° North 372 428 22,700 720 Climbing Indianapolis Center
08:30AM 39.6275 -84.5169 14° North 388 447 23,000 120 Climbing Indianapolis Center
08:31AM 39.7322 -84.4850 13° North 389 448 23,000  Level Indianapolis Center
08:32AM 39.8394 -84.4517 13° North 389 448 23,000  Level Indianapolis Center
08:33AM 39.9694 -84.4111 13° North 393 452 23,000  Level Indianapolis Center
08:34AM 40.0786 -84.3983 North 394 453 23,000  Level Indianapolis Center
08:35AM 40.1883 -84.4025 358° North 391 450 23,000  Level Indianapolis Center
08:36AM 40.3092 -84.4050 359° North 418 481 23,000  Level Indianapolis Center
08:37AM 40.4353 -84.4092 359° North 441 507 23,000  Level Indianapolis Center
08:38AM 40.5583 -84.4125 359° North 443 510 23,000  Level Indianapolis Center
08:39AM 40.6803 -84.4139 360° North 443 510 23,000  Level Indianapolis Center
08:40AM 40.8022 -84.4192 358° North 440 506 23,000  Level Indianapolis Center
08:41AM 40.9242 -84.4217 359° North 440 506 23,000 -660 Level Indianapolis Center
08:42AM 41.0081 -84.4228 359° North 437 503 22,000 -1,620 Descending Cleveland Center
08:43AM 41.1275 -84.4269 358° North 433 498 20,500 -1,560 Descending Cleveland Center
08:44AM 41.2433 -84.4283 359° North 424 488 18,900 -1,560 Descending Cleveland Center
08:45AM 41.3431 -84.4328 358° North 362 417 17,400 -1,500 Descending Cleveland Center
08:46AM 41.4294 -84.4531 350° North 322 371 15,900 -1,620 Descending Cleveland Center
08:47AM 41.5131 -84.4750 349° North 312 359 14,100 -1,800 Descending Cleveland Center
08:48AM 41.5997 -84.4808 357° North 315 362 12,200 -1,080 Descending Cleveland Center
08:49AM 41.7056 -84.4628 North 322 371 12,000 -60 Descending Cleveland Center
08:50AM 41.7878 -84.4203 21° North 330 380 12,100 60 Climbing Cleveland Center
08:51AM 41.7969 -84.3606 78° East 319 367 12,100 -120 Level Cleveland Center
08:51AM 41.7986 -84.3033 88° East 322 371 12,000 -180 Descending Cleveland Center
08:51AM 41.8017 -84.2800 80° East 318 366 12,000  Level Cleveland Center
08:52AM 41.8117 -84.1753 83° East 318 366 12,000 60 Level Cleveland Center
08:52AM 41.8125 -84.1556 87° East 320 368 12,100  Climbing Cleveland Center
08:53AM 41.8250 -84.0583 80° East 318 366 12,000 -300 Descending Cleveland Center
08:54AM 41.8931 -83.9858 38° Northeast 331 381 11,600 -780 Descending Cleveland Center
08:55AM 41.9803 -83.9311 25° Northeast 293 337 10,400 -1,140 Descending Cleveland Center
08:56AM 42.0264 -83.8781 41° Northeast 253 291 9,300 -1,320 Descending Cleveland Center
08:57AM 42.0208 -83.8028 96° East 221 254 7,800 -1,620 Descending Cleveland Center
08:58AM 41.9642 -83.7642 153° Southeast 232 267 6,100 -840 Descending Cleveland Center
08:59AM 41.9236 -83.6858 125° Southeast 221 254 6,100  Level Cleveland Center
09:00AM 41.9303 -83.6103 83° East 218 251 6,100 -120 Level Cleveland Center
09:01AM 41.9386 -83.5961 52° Northeast 212 244 6,000 -300 Descending Cleveland Center
09:01AM 41.9694 -83.5514 47° Northeast 202 232 5,800 -660 Descending Cleveland Center
09:02AM 42.0164 -83.5200 26° Northeast 203 234 4,800 -1,080 Descending Cleveland Center
09:04AM 42.0736 -83.4778 29° Northeast 162 186 3,500 -1,020 Descending Cleveland Center
09:05AM 42.1158 -83.4472 28° Northeast 167 192 2,700 -900 Descending Cleveland Center
09:06AM 42.1511 -83.4219 28° Northeast 170 196 1,800 -840 Descending Cleveland Center
09:07AM 42.1850 -83.3967 29° Northeast 151 174 1,100 -780 Descending Cleveland Center
09:07AM 42.1936 -83.3908 27° Northeast 130 150 900 -300 Descending Cleveland Center
09:08AM 42.2150 -83.3753 28° Northeast 144 166 800 -120 Descending Cleveland Center